sensor_id;sensor_type;location;lat;lon;timestamp;P1;durP1;ratioP1;P2;durP2;ratioP2
49147;SDS011;41980;45.550;12.070;2023-01-19T00:03:44;23.85;;;15.80;;
49147;SDS011;41980;45.550;12.070;2023-01-19T00:09:46;22.38;;;16.15;;
49147;SDS011;41980;45.550;12.070;2023-01-19T00:21:49;22.17;;;16.15;;
49147;SDS011;41980;45.550;12.070;2023-01-19T00:27:51;21.83;;;16.13;;
49147;SDS011;41980;45.550;12.070;2023-01-19T00:33:53;18.17;;;13.73;;
49147;SDS011;41980;45.550;12.070;2023-01-19T00:45:57;17.23;;;12.30;;
49147;SDS011;41980;45.550;12.070;2023-01-19T00:51:58;18.88;;;14.10;;
49147;SDS011;41980;45.550;12.070;2023-01-19T01:04:03;14.03;;;10.33;;
49147;SDS011;41980;45.550;12.070;2023-01-19T01:16:09;13.63;;;9.32;;
49147;SDS011;41980;45.550;12.070;2023-01-19T01:22:11;25.92;;;18.05;;
49147;SDS011;41980;45.550;12.070;2023-01-19T01:28:13;30.27;;;21.67;;
49147;SDS011;41980;45.550;12.070;2023-01-19T01:34:14;21.45;;;14.70;;
49147;SDS011;41980;45.550;12.070;2023-01-19T01:40:17;25.00;;;17.45;;
49147;SDS011;41980;45.550;12.070;2023-01-19T01:46:20;22.25;;;14.95;;
49147;SDS011;41980;45.550;12.070;2023-01-19T01:52:22;26.58;;;19.13;;
49147;SDS011;41980;45.550;12.070;2023-01-19T01:58:25;25.10;;;18.58;;
49147;SDS011;41980;45.550;12.070;2023-01-19T02:04:28;19.83;;;13.32;;
49147;SDS011;41980;45.550;12.070;2023-01-19T02:10:32;23.40;;;16.17;;
49147;SDS011;41980;45.550;12.070;2023-01-19T02:16:37;21.92;;;15.18;;
49147;SDS011;41980;45.550;12.070;2023-01-19T02:28:47;18.63;;;14.05;;
49147;SDS011;41980;45.550;12.070;2023-01-19T02:34:53;18.70;;;13.63;;
49147;SDS011;41980;45.550;12.070;2023-01-19T02:40:56;16.75;;;11.65;;
49147;SDS011;41980;45.550;12.070;2023-01-19T02:47:02;16.63;;;11.43;;
49147;SDS011;41980;45.550;12.070;2023-01-19T03:05:36;17.50;;;13.75;;
49147;SDS011;41980;45.550;12.070;2023-01-19T03:11:51;18.00;;;13.25;;
49147;SDS011;41980;45.550;12.070;2023-01-19T03:18:04;14.85;;;10.65;;
49147;SDS011;41980;45.550;12.070;2023-01-19T03:24:10;14.57;;;10.95;;
49147;SDS011;41980;45.550;12.070;2023-01-19T03:30:16;15.98;;;12.23;;
49147;SDS011;41980;45.550;12.070;2023-01-19T03:42:32;15.38;;;10.73;;
49147;SDS011;41980;45.550;12.070;2023-01-19T03:48:36;11.82;;;8.18;;
49147;SDS011;41980;45.550;12.070;2023-01-19T03:54:39;14.15;;;9.57;;
49147;SDS011;41980;45.550;12.070;2023-01-19T04:06:43;17.25;;;12.55;;
49147;SDS011;41980;45.550;12.070;2023-01-19T04:12:44;19.88;;;14.75;;
49147;SDS011;41980;45.550;12.070;2023-01-19T04:18:46;19.13;;;12.85;;
49147;SDS011;41980;45.550;12.070;2023-01-19T04:24:49;16.67;;;11.52;;
49147;SDS011;41980;45.550;12.070;2023-01-19T04:30:51;14.55;;;9.88;;
49147;SDS011;41980;45.550;12.070;2023-01-19T04:42:56;17.85;;;12.20;;
49147;SDS011;41980;45.550;12.070;2023-01-19T04:48:58;17.10;;;10.13;;
49147;SDS011;41980;45.550;12.070;2023-01-19T04:55:01;15.40;;;11.75;;
49147;SDS011;41980;45.550;12.070;2023-01-19T05:01:06;16.02;;;10.90;;
49147;SDS011;41980;45.550;12.070;2023-01-19T05:07:09;17.45;;;12.25;;
49147;SDS011;41980;45.550;12.070;2023-01-19T05:19:14;14.20;;;10.05;;
49147;SDS011;41980;45.550;12.070;2023-01-19T05:25:17;12.50;;;8.32;;
49147;SDS011;41980;45.550;12.070;2023-01-19T05:31:19;14.13;;;10.15;;
49147;SDS011;41980;45.550;12.070;2023-01-19T05:43:23;13.55;;;10.18;;
49147;SDS011;41980;45.550;12.070;2023-01-19T05:49:26;12.38;;;8.50;;
49147;SDS011;41980;45.550;12.070;2023-01-19T05:55:28;11.70;;;8.25;;
49147;SDS011;41980;45.550;12.070;2023-01-19T06:01:30;14.23;;;8.45;;
49147;SDS011;41980;45.550;12.070;2023-01-19T06:07:33;13.40;;;7.65;;
49147;SDS011;41980;45.550;12.070;2023-01-19T06:19:40;12.63;;;7.40;;
49147;SDS011;41980;45.550;12.070;2023-01-19T06:31:43;9.75;;;6.70;;
49147;SDS011;41980;45.550;12.070;2023-01-19T06:37:46;10.05;;;6.75;;
49147;SDS011;41980;45.550;12.070;2023-01-19T06:43:48;8.45;;;6.30;;
49147;SDS011;41980;45.550;12.070;2023-01-19T06:49:50;9.68;;;6.22;;
49147;SDS011;41980;45.550;12.070;2023-01-19T07:01:55;6.85;;;4.57;;
49147;SDS011;41980;45.550;12.070;2023-01-19T07:07:57;5.85;;;3.80;;
49147;SDS011;41980;45.550;12.070;2023-01-19T07:13:59;6.18;;;3.20;;
49147;SDS011;41980;45.550;12.070;2023-01-19T07:32:34;3.13;;;2.10;;
49147;SDS011;41980;45.550;12.070;2023-01-19T07:38:36;3.38;;;1.95;;
49147;SDS011;41980;45.550;12.070;2023-01-19T07:50:40;4.10;;;2.50;;
49147;SDS011;41980;45.550;12.070;2023-01-19T07:56:42;4.70;;;2.53;;
49147;SDS011;41980;45.550;12.070;2023-01-19T08:08:47;4.30;;;2.15;;
49147;SDS011;41980;45.550;12.070;2023-01-19T08:14:49;3.45;;;2.08;;
49147;SDS011;41980;45.550;12.070;2023-01-19T08:20:52;3.83;;;2.10;;
49147;SDS011;41980;45.550;12.070;2023-01-19T08:26:56;4.20;;;2.45;;
49147;SDS011;41980;45.550;12.070;2023-01-19T08:33:00;2.55;;;1.55;;
49147;SDS011;41980;45.550;12.070;2023-01-19T08:39:04;3.10;;;1.58;;
49147;SDS011;41980;45.550;12.070;2023-01-19T08:45:07;2.55;;;1.60;;
49147;SDS011;41980;45.550;12.070;2023-01-19T08:51:11;2.42;;;1.50;;
49147;SDS011;41980;45.550;12.070;2023-01-19T08:57:15;2.53;;;1.50;;
49147;SDS011;41980;45.550;12.070;2023-01-19T09:03:23;2.22;;;1.50;;
49147;SDS011;41980;45.550;12.070;2023-01-19T09:09:26;2.38;;;1.40;;
49147;SDS011;41980;45.550;12.070;2023-01-19T09:15:28;2.53;;;1.20;;
49147;SDS011;41980;45.550;12.070;2023-01-19T09:21:34;2.20;;;1.20;;
49147;SDS011;41980;45.550;12.070;2023-01-19T09:33:39;4.78;;;2.65;;
49147;SDS011;41980;45.550;12.070;2023-01-19T09:39:41;4.13;;;2.60;;
49147;SDS011;41980;45.550;12.070;2023-01-19T09:51:52;3.30;;;2.20;;
49147;SDS011;41980;45.550;12.070;2023-01-19T09:57:57;2.95;;;2.13;;
49147;SDS011;41980;45.550;12.070;2023-01-19T10:22:22;4.45;;;2.25;;
49147;SDS011;41980;45.550;12.070;2023-01-19T10:28:27;3.65;;;2.38;;
49147;SDS011;41980;45.550;12.070;2023-01-19T10:34:31;4.30;;;2.40;;
49147;SDS011;41980;45.550;12.070;2023-01-19T10:40:36;5.63;;;2.75;;
49147;SDS011;41980;45.550;12.070;2023-01-19T10:46:48;3.70;;;2.80;;
49147;SDS011;41980;45.550;12.070;2023-01-19T10:52:52;4.40;;;2.38;;
49147;SDS011;41980;45.550;12.070;2023-01-19T10:59:00;3.92;;;1.83;;
49147;SDS011;41980;45.550;12.070;2023-01-19T11:11:20;2.40;;;1.40;;
49147;SDS011;41980;45.550;12.070;2023-01-19T11:17:24;2.65;;;1.40;;
49147;SDS011;41980;45.550;12.070;2023-01-19T11:29:32;3.75;;;2.40;;
49147;SDS011;41980;45.550;12.070;2023-01-19T11:35:37;3.00;;;1.98;;
49147;SDS011;41980;45.550;12.070;2023-01-19T11:41:40;2.92;;;1.77;;
49147;SDS011;41980;45.550;12.070;2023-01-19T11:47:43;2.75;;;1.75;;
49147;SDS011;41980;45.550;12.070;2023-01-19T11:53:50;2.55;;;1.50;;
49147;SDS011;41980;45.550;12.070;2023-01-19T11:59:53;2.13;;;1.02;;
49147;SDS011;41980;45.550;12.070;2023-01-19T12:05:58;2.78;;;1.60;;
49147;SDS011;41980;45.550;12.070;2023-01-19T12:12:06;4.05;;;1.80;;
49147;SDS011;41980;45.550;12.070;2023-01-19T12:18:15;2.60;;;1.85;;
49147;SDS011;41980;45.550;12.070;2023-01-19T12:30:30;3.92;;;1.50;;
49147;SDS011;41980;45.550;12.070;2023-01-19T12:36:34;3.00;;;2.00;;
49147;SDS011;41980;45.550;12.070;2023-01-19T12:42:42;2.92;;;1.65;;
49147;SDS011;41980;45.550;12.070;2023-01-19T12:48:47;3.03;;;1.70;;
49147;SDS011;41980;45.550;12.070;2023-01-19T13:07:08;3.53;;;1.98;;
49147;SDS011;41980;45.550;12.070;2023-01-19T13:19:49;3.78;;;1.63;;
49147;SDS011;41980;45.550;12.070;2023-01-19T13:32:01;3.10;;;2.28;;
49147;SDS011;41980;45.550;12.070;2023-01-19T13:38:08;2.90;;;1.80;;
49147;SDS011;41980;45.550;12.070;2023-01-19T13:50:24;3.90;;;2.63;;
49147;SDS011;41980;45.550;12.070;2023-01-19T13:56:28;3.58;;;2.50;;
49147;SDS011;41980;45.550;12.070;2023-01-19T14:08:34;3.90;;;2.35;;
49147;SDS011;41980;45.550;12.070;2023-01-19T14:20:39;3.92;;;2.90;;
49147;SDS011;41980;45.550;12.070;2023-01-19T14:32:48;3.78;;;2.55;;
49147;SDS011;41980;45.550;12.070;2023-01-19T14:44:53;3.90;;;2.63;;
49147;SDS011;41980;45.550;12.070;2023-01-19T14:57:04;3.47;;;2.53;;
49147;SDS011;41980;45.550;12.070;2023-01-19T15:03:13;3.97;;;2.72;;
49147;SDS011;41980;45.550;12.070;2023-01-19T15:09:15;4.95;;;3.88;;
49147;SDS011;41980;45.550;12.070;2023-01-19T15:15:19;4.07;;;2.90;;
49147;SDS011;41980;45.550;12.070;2023-01-19T15:21:27;3.47;;;2.45;;
49147;SDS011;41980;45.550;12.070;2023-01-19T15:27:30;3.55;;;2.72;;
49147;SDS011;41980;45.550;12.070;2023-01-19T15:39:34;4.47;;;3.10;;
49147;SDS011;41980;45.550;12.070;2023-01-19T15:51:42;3.90;;;2.78;;
49147;SDS011;41980;45.550;12.070;2023-01-19T15:57:45;3.47;;;2.67;;
49147;SDS011;41980;45.550;12.070;2023-01-19T16:03:48;3.08;;;2.40;;
49147;SDS011;41980;45.550;12.070;2023-01-19T16:09:53;3.88;;;2.90;;
49147;SDS011;41980;45.550;12.070;2023-01-19T16:22:01;3.50;;;2.17;;
49147;SDS011;41980;45.550;12.070;2023-01-19T16:28:05;4.65;;;2.50;;
49147;SDS011;41980;45.550;12.070;2023-01-19T16:34:08;4.28;;;2.60;;
49147;SDS011;41980;45.550;12.070;2023-01-19T16:52:20;3.47;;;2.60;;
49147;SDS011;41980;45.550;12.070;2023-01-19T16:58:22;4.60;;;2.90;;
49147;SDS011;41980;45.550;12.070;2023-01-19T17:10:27;11.40;;;6.53;;
49147;SDS011;41980;45.550;12.070;2023-01-19T17:16:31;8.25;;;5.25;;
49147;SDS011;41980;45.550;12.070;2023-01-19T17:22:34;5.45;;;3.50;;
49147;SDS011;41980;45.550;12.070;2023-01-19T17:28:38;5.03;;;3.00;;
49147;SDS011;41980;45.550;12.070;2023-01-19T17:34:40;7.30;;;3.75;;
49147;SDS011;41980;45.550;12.070;2023-01-19T17:52:47;5.28;;;3.08;;
49147;SDS011;41980;45.550;12.070;2023-01-19T17:58:49;3.78;;;2.70;;
49147;SDS011;41980;45.550;12.070;2023-01-19T18:10:53;4.75;;;2.67;;
49147;SDS011;41980;45.550;12.070;2023-01-19T18:16:57;4.93;;;3.22;;
49147;SDS011;41980;45.550;12.070;2023-01-19T18:29:00;5.30;;;3.85;;
49147;SDS011;41980;45.550;12.070;2023-01-19T18:35:03;5.82;;;3.75;;
49147;SDS011;41980;45.550;12.070;2023-01-19T18:41:07;4.85;;;3.17;;
49147;SDS011;41980;45.550;12.070;2023-01-19T18:47:11;6.97;;;3.33;;
49147;SDS011;41980;45.550;12.070;2023-01-19T18:59:15;5.80;;;3.85;;
49147;SDS011;41980;45.550;12.070;2023-01-19T19:11:22;6.53;;;4.57;;
49147;SDS011;41980;45.550;12.070;2023-01-19T19:17:25;6.30;;;4.13;;
49147;SDS011;41980;45.550;12.070;2023-01-19T19:23:27;5.20;;;3.30;;
49147;SDS011;41980;45.550;12.070;2023-01-19T19:35:31;4.90;;;3.38;;
49147;SDS011;41980;45.550;12.070;2023-01-19T19:47:37;5.50;;;3.60;;
49147;SDS011;41980;45.550;12.070;2023-01-19T19:59:41;6.05;;;3.47;;
49147;SDS011;41980;45.550;12.070;2023-01-19T20:05:43;5.32;;;2.95;;
49147;SDS011;41980;45.550;12.070;2023-01-19T20:11:46;5.72;;;3.90;;
49147;SDS011;41980;45.550;12.070;2023-01-19T20:17:49;5.60;;;3.40;;
49147;SDS011;41980;45.550;12.070;2023-01-19T20:29:54;3.70;;;2.45;;
49147;SDS011;41980;45.550;12.070;2023-01-19T20:35:58;3.97;;;2.67;;
49147;SDS011;41980;45.550;12.070;2023-01-19T20:42:36;4.40;;;3.08;;
49147;SDS011;41980;45.550;12.070;2023-01-19T20:48:53;3.97;;;2.80;;
49147;SDS011;41980;45.550;12.070;2023-01-19T20:55:08;3.95;;;2.70;;
49147;SDS011;41980;45.550;12.070;2023-01-19T21:01:33;3.95;;;2.70;;
49147;SDS011;41980;45.550;12.070;2023-01-19T21:07:44;4.35;;;3.17;;
49147;SDS011;41980;45.550;12.070;2023-01-19T21:13:47;4.57;;;3.08;;
49147;SDS011;41980;45.550;12.070;2023-01-19T21:19:51;4.43;;;3.15;;
49147;SDS011;41980;45.550;12.070;2023-01-19T21:25:55;4.57;;;3.25;;
49147;SDS011;41980;45.550;12.070;2023-01-19T21:31:59;3.95;;;2.85;;
49147;SDS011;41980;45.550;12.070;2023-01-19T21:38:02;3.92;;;2.85;;
49147;SDS011;41980;45.550;12.070;2023-01-19T21:44:04;4.07;;;2.90;;
49147;SDS011;41980;45.550;12.070;2023-01-19T21:50:10;3.97;;;2.90;;
49147;SDS011;41980;45.550;12.070;2023-01-19T21:56:12;3.67;;;2.63;;
49147;SDS011;41980;45.550;12.070;2023-01-19T22:02:15;4.28;;;2.97;;
49147;SDS011;41980;45.550;12.070;2023-01-19T22:08:17;4.97;;;3.20;;
49147;SDS011;41980;45.550;12.070;2023-01-19T22:20:21;3.80;;;2.75;;
49147;SDS011;41980;45.550;12.070;2023-01-19T22:26:23;4.03;;;2.38;;
49147;SDS011;41980;45.550;12.070;2023-01-19T22:32:27;3.67;;;2.63;;
49147;SDS011;41980;45.550;12.070;2023-01-19T22:44:30;2.95;;;2.10;;
49147;SDS011;41980;45.550;12.070;2023-01-19T22:50:33;3.17;;;1.85;;
49147;SDS011;41980;45.550;12.070;2023-01-19T22:56:35;2.92;;;1.88;;
49147;SDS011;41980;45.550;12.070;2023-01-19T23:02:39;2.95;;;1.90;;
49147;SDS011;41980;45.550;12.070;2023-01-19T23:08:41;2.85;;;1.77;;
49147;SDS011;41980;45.550;12.070;2023-01-19T23:14:43;2.97;;;1.77;;
49147;SDS011;41980;45.550;12.070;2023-01-19T23:20:45;3.50;;;2.25;;
49147;SDS011;41980;45.550;12.070;2023-01-19T23:32:50;2.37;;;1.53;;
49147;SDS011;41980;45.550;12.070;2023-01-19T23:44:55;2.90;;;1.90;;
49147;SDS011;41980;45.550;12.070;2023-01-19T23:56:59;2.50;;;1.75;;
